createdAt,value
2024-05-09T00:00:36.337Z,4.77
2024-05-09T00:03:08.029Z,5.43
2024-05-09T00:05:35.972Z,4.00
2024-05-09T00:08:03.534Z,5.63
2024-05-09T00:10:36.306Z,4.43
2024-05-09T00:13:05.908Z,4.77
2024-05-09T00:15:33.943Z,5.00
2024-05-09T00:18:01.609Z,4.23
2024-05-09T00:20:36.835Z,6.40
2024-05-09T00:23:07.512Z,5.97
2024-05-09T00:25:35.427Z,4.73
2024-05-09T00:28:02.808Z,5.77
2024-05-09T00:30:34.568Z,6.57
2024-05-09T00:33:05.178Z,5.53
2024-05-09T00:35:33.070Z,6.50
2024-05-09T00:38:00.126Z,7.07
2024-05-09T00:40:37.604Z,4.63
2024-05-09T00:43:07.255Z,5.07
2024-05-09T00:45:34.901Z,4.97
2024-05-09T00:48:05.207Z,5.20
2024-05-09T00:50:38.008Z,7.97
2024-05-09T00:53:06.688Z,4.43
2024-05-09T00:55:35.463Z,6.97
2024-05-09T00:58:03.172Z,4.70
2024-05-09T01:00:37.873Z,4.70
2024-05-09T01:03:07.773Z,6.03
2024-05-09T01:05:35.647Z,4.73
2024-05-09T01:08:03.373Z,5.30
2024-05-09T01:10:34.636Z,4.37
2024-05-09T01:13:06.277Z,4.60
2024-05-09T01:15:34.620Z,6.50
2024-05-09T01:18:06.235Z,4.27
2024-05-09T01:20:40.954Z,4.27
2024-05-09T01:23:11.145Z,4.43
2024-05-09T01:25:38.292Z,5.23
2024-05-09T01:28:05.817Z,3.67
2024-05-09T01:30:35.730Z,7.03
2024-05-09T01:33:06.173Z,5.73
2024-05-09T01:35:34.778Z,4.30
2024-05-09T01:38:01.624Z,4.20
2024-05-09T01:40:37.061Z,6.00
2024-05-09T01:43:06.906Z,5.63
2024-05-09T01:45:33.872Z,4.70
2024-05-09T01:48:01.330Z,4.57
2024-05-09T01:50:37.845Z,4.90
2024-05-09T01:53:08.844Z,4.27
2024-05-09T01:55:35.762Z,5.23
2024-05-09T01:58:02.472Z,5.13
2024-05-09T02:00:38.155Z,5.70
2024-05-09T02:03:15.577Z,5.03
2024-05-09T02:05:46.551Z,5.47
2024-05-09T02:08:15.673Z,5.00
2024-05-09T02:10:44.308Z,5.83
2024-05-09T02:13:11.354Z,4.73
2024-05-09T02:15:38.368Z,6.20
2024-05-09T02:18:05.761Z,4.53
2024-05-09T02:20:36.111Z,5.03
2024-05-09T02:23:05.200Z,5.70
2024-05-09T02:25:32.665Z,5.13
2024-05-09T02:27:59.738Z,4.73
2024-05-09T02:30:36.522Z,5.70
2024-05-09T02:33:08.074Z,6.43
2024-05-09T02:35:36.025Z,5.30
2024-05-09T02:38:03.161Z,4.97
2024-05-09T02:40:36.679Z,6.30
2024-05-09T02:43:06.530Z,7.07
2024-05-09T02:45:33.570Z,6.60
2024-05-09T02:48:01.696Z,5.93
2024-05-09T02:50:37.057Z,4.97
2024-05-09T02:53:06.984Z,5.83
2024-05-09T02:55:34.482Z,5.27
2024-05-09T02:58:01.349Z,6.67
2024-05-09T03:00:36.757Z,5.50
2024-05-09T03:03:08.606Z,7.10
2024-05-09T03:05:36.859Z,5.87
2024-05-09T03:08:04.340Z,5.07
2024-05-09T03:10:36.006Z,5.63
2024-05-09T03:13:08.759Z,4.63
2024-05-09T03:15:35.941Z,6.27
2024-05-09T03:18:03.698Z,4.90
2024-05-09T03:20:34.610Z,5.13
2024-05-09T03:23:03.608Z,6.60
2024-05-09T03:25:31.041Z,5.60
2024-05-09T03:27:57.887Z,6.27
2024-05-09T03:30:36.700Z,5.70
2024-05-09T03:33:13.925Z,6.93
2024-05-09T03:35:42.112Z,4.77
2024-05-09T03:38:09.556Z,5.07
2024-05-09T03:40:37.138Z,5.63
2024-05-09T03:43:04.066Z,5.43
2024-05-09T03:45:30.827Z,6.47
2024-05-09T03:47:57.782Z,7.03
2024-05-09T03:50:30.239Z,7.30
2024-05-09T03:53:01.861Z,5.90
2024-05-09T03:55:28.943Z,5.67
2024-05-09T03:57:55.767Z,6.00
2024-05-09T04:00:31.082Z,6.13
2024-05-09T04:03:05.904Z,5.17
2024-05-09T04:05:34.683Z,4.83
2024-05-09T04:08:01.893Z,6.47
2024-05-09T04:10:33.487Z,6.67
2024-05-09T04:13:02.430Z,7.43
2024-05-09T04:15:29.537Z,5.60
2024-05-09T04:17:56.656Z,7.17
2024-05-09T04:20:34.334Z,5.23
2024-05-09T04:23:07.172Z,5.47
2024-05-09T04:25:34.787Z,7.23
2024-05-09T04:28:01.704Z,5.47
2024-05-09T04:30:37.109Z,6.53
2024-05-09T04:33:08.833Z,5.87
2024-05-09T04:35:37.940Z,6.13
2024-05-09T04:38:05.758Z,8.00
2024-05-09T04:40:35.808Z,8.47
2024-05-09T04:43:05.284Z,8.93
2024-05-09T04:45:32.224Z,7.10
2024-05-09T04:47:59.301Z,7.10
2024-05-09T04:50:35.382Z,6.83
2024-05-09T04:53:06.012Z,7.50
2024-05-09T04:55:33.333Z,7.77
2024-05-09T04:58:00.207Z,7.23
2024-05-09T05:00:34.904Z,5.30
2024-05-09T05:03:10.208Z,7.23
2024-05-09T05:05:42.760Z,7.50
2024-05-09T05:08:14.713Z,7.83
2024-05-09T05:10:43.150Z,8.83
2024-05-09T05:13:21.070Z,6.17
2024-05-09T05:15:50.352Z,7.30
2024-05-09T05:18:17.715Z,6.80
2024-05-09T05:20:45.180Z,5.70
2024-05-09T05:23:14.120Z,5.90
2024-05-09T05:25:44.899Z,6.37
2024-05-09T05:28:11.725Z,8.07
2024-05-09T05:30:39.140Z,5.63
2024-05-09T05:33:07.293Z,6.50
2024-05-09T05:35:34.933Z,6.37
2024-05-09T05:38:02.556Z,6.93
2024-05-09T05:40:37.044Z,5.77
2024-05-09T05:43:06.351Z,7.67
2024-05-09T05:45:33.171Z,6.60
2024-05-09T05:48:02.795Z,8.37
2024-05-09T05:50:35.717Z,7.03
2024-05-09T05:53:06.118Z,5.57
2024-05-09T05:55:33.177Z,5.83
2024-05-09T05:58:00.978Z,5.83
2024-05-09T06:00:34.809Z,5.50
2024-05-09T06:03:05.769Z,5.43
2024-05-09T06:05:33.026Z,5.50
2024-05-09T06:08:00.079Z,6.20
2024-05-09T06:10:36.969Z,5.93
2024-05-09T06:13:06.740Z,5.07
2024-05-09T06:15:33.567Z,8.57
2024-05-09T06:18:00.669Z,7.40
2024-05-09T06:20:35.065Z,5.77
2024-05-09T06:23:05.201Z,7.27
2024-05-09T06:25:32.416Z,7.40
2024-05-09T06:28:02.410Z,6.67
2024-05-09T06:30:37.617Z,6.73
2024-05-09T06:33:08.682Z,5.00
2024-05-09T06:35:36.209Z,5.13
2024-05-09T06:38:03.200Z,6.70
2024-05-09T06:40:37.193Z,5.80
2024-05-09T06:43:11.447Z,8.40
2024-05-09T06:45:39.669Z,5.67
2024-05-09T06:48:07.466Z,5.57
2024-05-09T06:50:37.937Z,5.77
2024-05-09T06:53:06.657Z,5.20
2024-05-09T06:55:33.518Z,7.20
2024-05-09T06:58:00.417Z,5.53
2024-05-09T07:00:35.099Z,6.70
2024-05-09T07:03:09.591Z,5.47
2024-05-09T07:05:37.091Z,5.00
2024-05-09T07:08:04.817Z,6.27
2024-05-09T07:10:35.175Z,5.60
2024-05-09T07:13:02.979Z,6.90
2024-05-09T07:15:29.786Z,6.33
2024-05-09T07:17:57.020Z,4.47
2024-05-09T07:20:32.274Z,4.30
2024-05-09T07:23:05.299Z,6.50
2024-05-09T07:25:32.370Z,4.70
2024-05-09T07:27:59.197Z,6.00
2024-05-09T07:30:31.097Z,4.28
2024-05-09T07:33:01.643Z,5.00
2024-05-09T07:35:29.577Z,5.20
2024-05-09T07:37:56.634Z,5.70
2024-05-09T07:40:32.490Z,6.10
2024-05-09T07:43:07.703Z,3.70
2024-05-09T07:52:32.525Z,7.30
2024-05-09T07:55:55.448Z,3.75
2024-05-09T07:58:27.776Z,5.30
2024-05-09T08:00:55.032Z,9.20
2024-05-09T08:03:22.705Z,4.55
2024-05-09T08:05:52.340Z,5.28
2024-05-09T08:08:19.163Z,3.80
2024-05-09T08:10:46.503Z,6.28
2024-05-09T08:13:13.502Z,3.50
2024-05-09T08:15:40.493Z,3.38
2024-05-09T08:18:11.245Z,7.53
2024-05-09T08:20:38.975Z,3.25
2024-05-09T08:23:06.017Z,5.45
2024-05-09T08:25:32.870Z,4.18
2024-05-09T08:27:59.895Z,5.47
2024-05-09T08:30:33.461Z,4.28
2024-05-09T08:33:04.329Z,3.70
2024-05-09T08:35:31.979Z,4.50
2024-05-09T08:37:59.050Z,4.50
2024-05-09T08:40:33.390Z,4.35
2024-05-09T08:43:06.718Z,3.10
2024-05-09T08:45:35.535Z,5.15
2024-05-09T08:48:06.287Z,4.78
2024-05-09T08:50:38.778Z,3.80
2024-05-09T08:53:07.504Z,4.13
2024-05-09T08:55:35.864Z,6.78
2024-05-09T08:58:05.012Z,4.50
2024-05-09T09:00:37.006Z,3.42
2024-05-09T09:03:09.241Z,3.55
2024-05-09T09:05:39.527Z,2.95
2024-05-09T09:08:08.501Z,3.85
2024-05-09T09:10:35.856Z,3.70
2024-05-09T09:13:04.202Z,3.67
2024-05-09T09:15:31.418Z,4.22
2024-05-09T09:17:59.760Z,2.70
2024-05-09T09:20:34.157Z,6.63
2024-05-09T09:23:03.914Z,3.50
2024-05-09T09:25:30.876Z,3.72
2024-05-09T09:28:00.678Z,4.55
2024-05-09T09:30:35.258Z,3.28
2024-05-09T09:33:11.264Z,5.25
2024-05-09T09:35:40.208Z,2.67
2024-05-09T09:38:07.933Z,2.95
2024-05-09T09:40:40.668Z,4.50
2024-05-09T09:43:16.673Z,4.38
2024-05-09T09:45:45.071Z,5.28
2024-05-09T09:48:14.609Z,3.97
2024-05-09T09:50:42.361Z,4.43
2024-05-09T09:53:10.497Z,4.03
2024-05-09T09:55:39.723Z,5.68
2024-05-09T09:58:09.663Z,2.67
2024-05-09T10:00:39.246Z,5.22
2024-05-09T10:03:06.844Z,8.05
2024-05-09T10:05:34.578Z,4.20
2024-05-09T10:08:05.745Z,5.28
2024-05-09T10:10:36.604Z,3.47
2024-05-09T10:13:07.674Z,4.22
2024-05-09T10:15:55.738Z,3.92
2024-05-09T10:18:28.289Z,3.30
2024-05-09T10:20:57.480Z,3.38
2024-05-09T10:23:26.006Z,3.13
2024-05-09T10:25:57.519Z,4.75
2024-05-09T10:28:28.450Z,4.10
2024-05-09T10:31:14.000Z,2.75
2024-05-09T10:33:51.542Z,3.47
2024-05-09T10:36:24.367Z,4.47
2024-05-09T10:38:52.863Z,3.00
2024-05-09T10:41:21.462Z,5.75
2024-05-09T10:43:48.657Z,5.93
2024-05-09T10:46:15.962Z,4.05
2024-05-09T10:48:43.544Z,4.03
2024-05-09T10:51:10.827Z,3.45
2024-05-09T10:53:45.324Z,5.55
2024-05-09T10:56:14.021Z,7.53
2024-05-09T10:58:41.027Z,3.05
2024-05-09T11:01:09.059Z,3.05
2024-05-09T11:03:37.087Z,4.30
2024-05-09T11:06:05.361Z,2.92
2024-05-09T11:08:32.941Z,3.28
2024-05-09T11:11:00.172Z,4.43
2024-05-09T11:13:35.074Z,3.30
2024-05-09T11:16:03.493Z,4.50
2024-05-09T11:18:35.252Z,2.58
2024-05-09T11:21:12.415Z,4.07
2024-05-09T11:23:39.626Z,2.40
2024-05-09T11:26:07.350Z,3.42
2024-05-09T11:28:34.055Z,5.53
2024-05-09T11:31:09.080Z,3.83
2024-05-09T11:33:38.780Z,4.95
2024-05-09T11:36:07.140Z,2.53
2024-05-09T11:38:33.973Z,2.83
2024-05-09T11:41:01.415Z,2.72
2024-05-09T11:43:28.343Z,3.75
2024-05-09T11:45:59.522Z,2.83
2024-05-09T11:48:27.028Z,3.00
2024-05-09T11:50:55.522Z,3.58
2024-05-09T11:53:22.790Z,3.53
2024-05-09T11:55:49.823Z,4.97
2024-05-09T11:58:18.188Z,3.97
2024-05-09T12:00:46.374Z,3.05
2024-05-09T12:03:13.622Z,3.05
2024-05-09T12:05:40.679Z,5.22
2024-05-09T12:08:07.816Z,5.25
2024-05-09T12:10:36.233Z,2.63
2024-05-09T12:13:05.636Z,6.57
2024-05-09T12:15:36.667Z,4.20
2024-05-09T12:18:04.884Z,4.55
2024-05-09T12:20:37.147Z,2.90
2024-05-09T12:23:08.840Z,3.85
2024-05-09T12:25:37.303Z,3.05
2024-05-09T12:28:04.478Z,2.63
2024-05-09T12:30:36.822Z,3.08
2024-05-09T12:33:08.842Z,4.82
2024-05-09T12:35:36.232Z,3.67
2024-05-09T12:38:03.105Z,3.10
2024-05-09T12:40:35.938Z,7.10
2024-05-09T12:43:06.467Z,3.60
2024-05-09T12:45:33.683Z,2.42
2024-05-09T12:48:00.799Z,2.60
2024-05-09T12:50:32.582Z,4.70
2024-05-09T12:53:02.109Z,3.50
2024-05-09T12:55:33.991Z,2.35
2024-05-09T12:58:08.308Z,2.28
2024-05-09T13:00:35.592Z,3.78
2024-05-09T13:03:02.744Z,3.38
2024-05-09T13:05:29.966Z,3.47
2024-05-09T13:07:57.397Z,4.45
2024-05-09T13:10:31.266Z,4.30
2024-05-09T13:13:00.761Z,3.33
2024-05-09T13:15:28.381Z,4.57
2024-05-09T13:17:58.128Z,3.22
2024-05-09T13:20:32.766Z,3.45
2024-05-09T13:23:06.697Z,3.75
2024-05-09T13:25:34.899Z,3.38
2024-05-09T13:28:02.608Z,3.15
2024-05-09T13:30:38.352Z,3.90
2024-05-09T13:33:09.317Z,2.40
2024-05-09T13:35:36.480Z,3.55
2024-05-09T13:38:04.644Z,4.78
2024-05-09T13:40:34.709Z,3.63
2024-05-09T13:43:04.916Z,3.85
2024-05-09T13:45:32.412Z,3.00
2024-05-09T13:47:59.559Z,3.42
2024-05-09T13:50:33.649Z,4.30
2024-05-09T13:53:03.349Z,5.65
2024-05-09T13:55:30.134Z,3.15
2024-05-09T13:57:57.144Z,3.67
2024-05-09T14:02:54.439Z,5.20
2024-05-09T14:05:21.510Z,4.47
2024-05-09T14:07:48.824Z,5.00
2024-05-09T14:10:22.997Z,4.10
2024-05-09T14:12:55.461Z,3.40
2024-05-09T14:15:22.392Z,2.90
2024-05-09T14:17:49.405Z,5.28
2024-05-09T14:20:23.882Z,3.13
2024-05-09T14:22:57.408Z,3.90
2024-05-09T14:25:26.327Z,5.10
2024-05-09T14:27:53.374Z,2.55
2024-05-09T14:30:29.752Z,4.93
2024-05-09T14:33:01.775Z,2.92
2024-05-09T14:35:28.637Z,5.50
2024-05-09T14:37:55.350Z,5.50
2024-05-09T14:40:35.453Z,3.55
2024-05-09T14:43:07.751Z,3.38
2024-05-09T14:45:34.903Z,5.13
2024-05-09T14:48:02.833Z,2.80
2024-05-09T14:50:35.902Z,4.53
2024-05-09T14:53:06.786Z,5.35
2024-05-09T14:55:36.721Z,3.95
2024-05-09T14:58:06.573Z,2.95
2024-05-09T15:00:40.122Z,3.00
2024-05-09T15:03:09.118Z,3.80
2024-05-09T15:05:35.999Z,2.60
2024-05-09T15:08:06.151Z,5.65
2024-05-09T15:10:35.769Z,3.22
2024-05-09T15:13:04.292Z,4.63
2024-05-09T15:15:31.381Z,3.35
2024-05-09T15:17:58.460Z,4.68
2024-05-09T15:20:33.061Z,3.80
2024-05-09T15:23:03.075Z,3.72
2024-05-09T15:25:30.192Z,5.22
2024-05-09T15:27:57.362Z,3.55
2024-05-09T15:30:30.410Z,3.78
2024-05-09T15:33:00.127Z,4.07
2024-05-09T15:35:27.199Z,3.50
2024-05-09T15:37:54.329Z,3.28
2024-05-09T15:40:30.990Z,3.90
2024-05-09T15:43:05.556Z,4.28
2024-05-09T15:45:32.740Z,3.72
2024-05-09T15:48:00.029Z,4.90
2024-05-09T15:50:35.833Z,5.30
2024-05-09T15:53:07.235Z,3.25
2024-05-09T15:55:35.002Z,3.78
2024-05-09T15:58:03.201Z,5.68
2024-05-09T16:00:37.555Z,5.50
2024-05-09T16:03:12.417Z,5.65
2024-05-09T16:05:41.003Z,3.08
2024-05-09T16:08:08.492Z,4.18
2024-05-09T16:10:37.076Z,2.53
2024-05-09T16:13:05.030Z,6.60
2024-05-09T16:15:32.199Z,3.28
2024-05-09T16:17:59.949Z,3.60
2024-05-09T16:20:35.022Z,2.90
2024-05-09T16:23:07.594Z,4.32
2024-05-09T16:25:34.546Z,2.85
2024-05-09T16:28:07.074Z,3.40
2024-05-09T16:30:36.792Z,2.60
2024-05-09T16:33:05.335Z,3.72
2024-05-09T16:35:32.952Z,2.78
2024-05-09T16:38:01.820Z,2.80
2024-05-09T16:40:36.376Z,2.35
2024-05-09T16:43:07.189Z,2.75
2024-05-09T16:45:34.462Z,2.92
2024-05-09T16:48:01.972Z,3.40
2024-05-09T16:50:33.471Z,4.13
2024-05-09T16:53:03.019Z,4.55
2024-05-09T16:55:30.270Z,2.65
2024-05-09T16:57:58.018Z,5.53
2024-05-09T17:00:35.873Z,2.90
2024-05-09T17:03:09.893Z,4.03
2024-05-09T17:05:37.794Z,2.75
2024-05-09T17:08:05.510Z,3.80
2024-05-09T17:10:34.475Z,3.47
2024-05-09T17:13:03.579Z,2.88
2024-05-09T17:15:32.842Z,3.42
2024-05-09T17:18:00.299Z,2.92
2024-05-09T17:20:33.059Z,5.63
2024-05-09T17:23:04.850Z,2.75
2024-05-09T17:25:32.538Z,3.15
2024-05-09T17:28:06.928Z,4.68
2024-05-09T17:30:37.464Z,3.40
2024-05-09T17:33:07.806Z,2.90
2024-05-09T17:35:36.458Z,3.40
2024-05-09T17:38:04.528Z,3.17
2024-05-09T17:40:35.376Z,5.22
2024-05-09T17:43:05.322Z,5.10
2024-05-09T17:45:32.998Z,4.35
2024-05-09T17:48:00.781Z,3.47
2024-05-09T17:50:34.978Z,5.93
2024-05-09T17:53:04.872Z,3.60
2024-05-09T17:55:32.042Z,3.35
2024-05-09T17:57:59.222Z,3.95
2024-05-09T18:02:56.204Z,4.10
2024-05-09T18:05:23.112Z,3.35
2024-05-09T18:07:50.138Z,5.40
2024-05-09T18:10:25.198Z,4.28
2024-05-09T18:12:56.628Z,5.07
2024-05-09T18:15:24.193Z,9.43
2024-05-09T18:17:51.977Z,4.68
2024-05-09T18:20:28.624Z,4.43
2024-05-09T18:23:04.720Z,3.50
2024-05-09T18:25:31.482Z,3.95
2024-05-09T18:27:58.454Z,3.60
2024-05-09T18:30:32.207Z,3.78
2024-05-09T18:33:02.517Z,3.50
2024-05-09T18:35:29.587Z,4.47
2024-05-09T18:37:56.576Z,4.43
2024-05-09T18:40:32.649Z,5.18
2024-05-09T18:43:03.496Z,5.18
2024-05-09T18:45:33.799Z,4.25
2024-05-09T18:48:00.837Z,5.82
2024-05-09T18:50:35.333Z,3.78
2024-05-09T18:53:13.375Z,5.20
2024-05-09T18:55:41.654Z,6.05
2024-05-09T18:58:11.204Z,7.95
2024-05-09T19:00:41.544Z,5.40
2024-05-09T19:03:13.295Z,5.93
2024-05-09T19:05:43.743Z,7.25
2024-05-09T19:08:12.740Z,6.75
2024-05-09T19:10:46.054Z,7.28
2024-05-09T19:13:16.519Z,6.45
2024-05-09T19:15:44.685Z,4.85
2024-05-09T19:18:15.503Z,4.70
2024-05-09T19:20:44.248Z,4.78
2024-05-09T19:23:12.004Z,8.70
2024-05-09T19:25:39.401Z,4.72
2024-05-09T19:28:06.744Z,5.90
2024-05-09T19:30:39.684Z,5.35
2024-05-09T19:33:11.170Z,5.38
2024-05-09T19:35:39.391Z,6.25
2024-05-09T19:38:06.638Z,6.20
2024-05-09T19:40:36.756Z,4.15
2024-05-09T19:43:05.595Z,5.63
2024-05-09T19:45:34.951Z,5.60
2024-05-09T19:48:06.763Z,9.52
2024-05-09T19:50:41.155Z,7.53
2024-05-09T19:53:12.218Z,5.15
2024-05-09T19:55:40.109Z,6.43
2024-05-09T19:58:08.332Z,5.05
2024-05-09T20:00:38.616Z,6.78
2024-05-09T20:03:08.095Z,9.95
2024-05-09T20:05:36.722Z,7.50
2024-05-09T20:08:07.644Z,6.03
2024-05-09T20:10:36.023Z,6.18
2024-05-09T20:13:06.432Z,5.47
2024-05-09T20:15:38.238Z,5.63
2024-05-09T20:18:06.471Z,8.05
2024-05-09T20:20:41.515Z,10.75
2024-05-09T20:23:12.373Z,12.10
2024-05-09T20:25:42.367Z,6.80
2024-05-09T20:28:11.889Z,5.97
2024-05-09T20:30:39.080Z,8.20
2024-05-09T20:33:08.046Z,7.43
2024-05-09T20:35:38.844Z,6.95
2024-05-09T20:38:06.161Z,6.18
2024-05-09T20:40:37.576Z,8.55
2024-05-09T20:43:07.955Z,10.38
2024-05-09T20:45:35.793Z,10.18
2024-05-09T20:48:03.181Z,8.65
2024-05-09T20:50:37.501Z,10.80
2024-05-09T20:53:09.869Z,10.27
2024-05-09T20:55:36.946Z,10.45
2024-05-09T20:58:04.144Z,13.77
2024-05-09T21:00:39.265Z,10.35
2024-05-09T21:03:09.865Z,10.25
2024-05-09T21:05:37.013Z,12.52
2024-05-09T21:08:04.263Z,11.02
2024-05-09T21:10:33.346Z,10.73
2024-05-09T21:13:02.681Z,15.13
2024-05-09T21:15:30.212Z,12.15
2024-05-09T21:17:57.047Z,10.30
2024-05-09T21:20:30.581Z,14.40
2024-05-09T21:22:59.303Z,9.13
2024-05-09T21:25:26.165Z,9.35
2024-05-09T21:27:53.185Z,12.70
2024-05-09T21:30:31.567Z,10.40
2024-05-09T21:33:08.428Z,9.48
2024-05-09T21:35:35.681Z,11.07
2024-05-09T21:38:02.476Z,11.63
2024-05-09T21:40:34.325Z,11.38
2024-05-09T21:43:03.496Z,12.68
2024-05-09T21:45:30.404Z,12.23
2024-05-09T21:47:57.492Z,15.75
2024-05-09T21:50:32.187Z,11.65
2024-05-09T21:53:06.111Z,11.10
2024-05-09T21:55:33.029Z,10.02
2024-05-09T21:57:59.838Z,12.52
2024-05-09T22:00:34.569Z,10.73
2024-05-09T22:03:04.880Z,8.82
2024-05-09T22:05:32.117Z,8.90
2024-05-09T22:07:59.090Z,10.48
2024-05-09T22:10:31.119Z,10.57
2024-05-09T22:13:01.779Z,10.35
2024-05-09T22:15:28.901Z,8.13
2024-05-09T22:17:57.382Z,9.65
2024-05-09T22:20:33.520Z,8.43
2024-05-09T22:23:04.438Z,10.18
2024-05-09T22:25:32.286Z,8.80
2024-05-09T22:28:00.297Z,8.18
2024-05-09T22:30:35.394Z,9.40
2024-05-09T22:33:07.001Z,9.50
2024-05-09T22:35:34.086Z,11.30
2024-05-09T22:38:01.133Z,8.32
2024-05-09T22:40:38.537Z,10.07
2024-05-09T22:43:13.799Z,10.32
2024-05-09T22:45:41.057Z,8.88
2024-05-09T22:48:09.015Z,10.63
2024-05-09T22:50:36.168Z,8.95
2024-05-09T22:53:02.964Z,8.63
2024-05-09T22:55:29.985Z,9.50
2024-05-09T22:57:56.912Z,9.68
2024-05-09T23:02:53.574Z,9.60
2024-05-09T23:05:20.587Z,10.00
2024-05-09T23:07:47.475Z,10.48
2024-05-09T23:10:21.213Z,11.32
2024-05-09T23:12:55.045Z,11.13
2024-05-09T23:15:22.008Z,12.90
2024-05-09T23:17:49.002Z,10.85
2024-05-09T23:20:21.798Z,10.82
2024-05-09T23:22:56.180Z,11.25
2024-05-09T23:25:22.994Z,9.82
2024-05-09T23:27:49.848Z,10.65
2024-05-09T23:30:28.321Z,12.55
2024-05-09T23:33:01.363Z,11.15
2024-05-09T23:35:28.338Z,11.23
2024-05-09T23:37:55.085Z,13.95
2024-05-09T23:40:23.481Z,10.97
2024-05-09T23:42:50.847Z,12.35
2024-05-09T23:45:17.661Z,10.30
2024-05-09T23:47:44.584Z,12.40
2024-05-09T23:50:16.924Z,11.90
2024-05-09T23:52:50.429Z,14.00
2024-05-09T23:55:17.412Z,9.77
2024-05-09T23:57:44.448Z,11.23
